createdAt,value
2018-07-06T00:00:23.648Z,99.90
2018-07-06T00:03:03.681Z,99.90
2018-07-06T00:08:19.886Z,99.90
2018-07-06T00:10:59.551Z,99.90
2018-07-06T00:13:39.275Z,99.90
2018-07-06T00:16:18.795Z,99.90
2018-07-06T00:18:58.536Z,99.90
2018-07-06T00:21:38.207Z,99.90
2018-07-06T00:24:18.003Z,99.90
2018-07-06T00:26:57.659Z,99.90
2018-07-06T00:29:37.176Z,99.90
2018-07-06T00:32:16.967Z,99.90
2018-07-06T00:34:56.503Z,99.90
2018-07-06T00:37:36.155Z,99.90
2018-07-06T00:40:15.991Z,99.90
2018-07-06T00:42:55.704Z,99.90
2018-07-06T00:45:35.431Z,99.90
2018-07-06T00:48:15.251Z,99.90
2018-07-06T00:50:54.675Z,99.90
2018-07-06T00:53:34.465Z,99.90
2018-07-06T00:56:14.145Z,99.90
2018-07-06T00:58:53.643Z,99.90
2018-07-06T01:01:33.506Z,99.90
2018-07-06T01:04:13.133Z,99.90
2018-07-06T01:06:53.008Z,99.90
2018-07-06T01:09:34.132Z,99.90
2018-07-06T01:12:19.460Z,99.90
2018-07-06T01:15:01.120Z,99.90
2018-07-06T01:17:41.107Z,99.90
2018-07-06T01:20:20.796Z,99.90
2018-07-06T01:25:34.507Z,99.90
2018-07-06T01:28:14.247Z,99.90
2018-07-06T01:30:54.867Z,99.90
2018-07-06T01:33:34.409Z,99.90
2018-07-06T01:36:14.103Z,99.90
2018-07-06T01:38:53.583Z,99.90
2018-07-06T01:44:06.846Z,99.90
2018-07-06T01:46:47.022Z,99.90
2018-07-06T01:49:26.524Z,99.90
2018-07-06T01:52:06.315Z,99.90
2018-07-06T01:54:45.933Z,99.90
2018-07-06T01:57:26.581Z,99.90
2018-07-06T02:00:06.218Z,99.90
2018-07-06T02:02:45.922Z,99.90
2018-07-06T02:05:25.654Z,99.90
2018-07-06T02:08:05.432Z,99.90
2018-07-06T02:10:44.983Z,99.90
2018-07-06T02:13:24.683Z,99.90
2018-07-06T02:16:04.973Z,99.90
2018-07-06T02:18:44.504Z,99.90
2018-07-06T02:21:24.287Z,99.90
2018-07-06T02:24:04.047Z,99.90
2018-07-06T02:26:43.698Z,99.90
2018-07-06T02:29:23.233Z,99.90
2018-07-06T02:32:02.868Z,99.90
2018-07-06T02:34:42.865Z,99.90
2018-07-06T02:37:22.553Z,99.90
2018-07-06T02:42:35.672Z,99.90
2018-07-06T02:45:15.171Z,99.90
2018-07-06T02:47:54.832Z,99.90
2018-07-06T02:50:34.336Z,99.90
2018-07-06T02:53:13.891Z,99.90
2018-07-06T02:55:54.090Z,99.90
2018-07-06T02:58:34.800Z,99.90
2018-07-06T03:01:15.298Z,99.90
2018-07-06T03:03:55.041Z,99.90
2018-07-06T03:06:34.735Z,99.90
2018-07-06T03:09:14.523Z,99.90
2018-07-06T03:11:54.149Z,99.90
2018-07-06T03:14:34.427Z,99.90
2018-07-06T03:17:14.555Z,99.90
2018-07-06T03:19:54.018Z,99.90
2018-07-06T03:22:34.399Z,99.90
2018-07-06T03:25:14.114Z,99.90
2018-07-06T03:27:53.900Z,99.90
2018-07-06T03:30:33.460Z,99.90
2018-07-06T03:33:13.007Z,99.90
2018-07-06T03:35:53.716Z,99.90
2018-07-06T03:38:33.456Z,99.90
2018-07-06T03:41:13.315Z,99.90
2018-07-06T03:43:53.054Z,99.90
2018-07-06T03:46:32.758Z,99.90
2018-07-06T03:49:12.803Z,99.90
2018-07-06T03:51:52.619Z,99.90
2018-07-06T03:54:32.300Z,99.90
2018-07-06T03:57:11.995Z,99.90
2018-07-06T03:59:51.636Z,99.90
2018-07-06T04:02:31.175Z,99.90
2018-07-06T04:05:11.065Z,99.90
2018-07-06T04:07:51.602Z,99.90
2018-07-06T04:10:31.851Z,99.90
2018-07-06T04:13:11.463Z,99.90
2018-07-06T04:15:51.744Z,99.90
2018-07-06T04:18:31.475Z,99.90
2018-07-06T04:21:11.176Z,99.90
2018-07-06T04:23:50.660Z,99.90
2018-07-06T04:26:30.311Z,99.90
2018-07-06T04:29:09.971Z,99.90
2018-07-06T04:31:49.942Z,99.90
2018-07-06T04:34:29.603Z,99.90
2018-07-06T04:37:09.319Z,99.90
2018-07-06T04:39:48.976Z,99.90
2018-07-06T04:42:29.415Z,99.90
2018-07-06T04:45:09.144Z,99.90
2018-07-06T04:47:48.876Z,99.90
2018-07-06T04:50:28.491Z,99.90
2018-07-06T04:53:08.082Z,99.90
2018-07-06T04:55:48.006Z,99.90
2018-07-06T04:58:27.779Z,99.90
2018-07-06T05:01:07.715Z,99.90
2018-07-06T05:03:47.291Z,99.90
2018-07-06T05:06:26.838Z,99.90
2018-07-06T05:09:06.539Z,99.90
2018-07-06T05:11:46.343Z,99.90
2018-07-06T05:14:25.991Z,99.90
2018-07-06T05:17:06.820Z,99.90
2018-07-06T05:19:46.553Z,99.90
2018-07-06T05:22:26.091Z,99.90
2018-07-06T05:25:05.646Z,99.90
2018-07-06T05:27:47.084Z,99.90
2018-07-06T05:30:26.895Z,99.90
2018-07-06T05:33:06.603Z,99.90
2018-07-06T05:35:46.580Z,99.90
2018-07-06T05:38:26.207Z,99.90
2018-07-06T05:41:05.861Z,99.90
2018-07-06T05:43:45.459Z,99.90
2018-07-06T05:46:25.270Z,99.90
2018-07-06T05:51:38.483Z,99.90
2018-07-06T05:54:18.336Z,99.90
2018-07-06T05:56:58.041Z,99.90
2018-07-06T05:59:37.824Z,99.90
2018-07-06T06:02:17.456Z,99.90
2018-07-06T06:04:57.088Z,99.90
2018-07-06T06:07:25.644Z,99.90
2018-07-06T06:09:53.933Z,99.90
2018-07-06T06:12:22.627Z,99.90
2018-07-06T06:14:51.760Z,99.90
2018-07-06T06:17:20.353Z,99.90
2018-07-06T06:19:48.614Z,99.90
2018-07-06T06:22:16.835Z,99.90
2018-07-06T06:24:45.091Z,99.90
2018-07-06T06:27:13.345Z,99.90
2018-07-06T06:29:41.651Z,99.90
2018-07-06T06:32:10.675Z,99.90
2018-07-06T06:34:38.926Z,99.90
2018-07-06T06:39:35.197Z,99.90
2018-07-06T06:42:03.672Z,99.90
2018-07-06T06:44:31.955Z,99.90
2018-07-06T06:47:01.349Z,99.90
2018-07-06T06:49:30.878Z,99.90
2018-07-06T06:51:59.624Z,99.90
2018-07-06T06:54:27.938Z,99.90
2018-07-06T06:56:56.203Z,99.90
2018-07-06T06:59:24.792Z,99.90
2018-07-06T07:01:53.047Z,99.90
2018-07-06T07:04:21.556Z,99.90
2018-07-06T07:06:49.816Z,99.90
2018-07-06T07:09:18.053Z,99.90
2018-07-06T07:11:46.336Z,99.90
2018-07-06T07:14:14.584Z,99.90
2018-07-06T07:16:43.300Z,99.90
2018-07-06T07:19:11.591Z,99.90
2018-07-06T07:21:39.867Z,99.90
2018-07-06T07:24:08.157Z,99.90
2018-07-06T07:26:36.428Z,99.90
2018-07-06T07:29:04.692Z,99.90
2018-07-06T07:31:34.139Z,99.90
2018-07-06T07:34:02.372Z,99.90
2018-07-06T07:36:30.639Z,99.90
2018-07-06T07:38:58.949Z,99.90
2018-07-06T07:41:27.390Z,99.90
2018-07-06T07:43:55.780Z,99.90
2018-07-06T07:46:24.081Z,99.90
2018-07-06T07:48:52.298Z,99.90
2018-07-06T07:52:15.659Z,99.90
2018-07-06T07:54:47.112Z,99.90
2018-07-06T07:57:15.462Z,99.90
2018-07-06T07:59:47.159Z,99.90
2018-07-06T08:02:15.765Z,99.40
2018-07-06T08:04:45.283Z,98.20
2018-07-06T08:07:13.564Z,98.70
2018-07-06T08:09:41.795Z,97.40
2018-07-06T08:12:10.936Z,95.70
2018-07-06T08:14:39.125Z,94.30
2018-07-06T08:17:07.336Z,94.40
2018-07-06T08:19:35.794Z,94.40
2018-07-06T08:22:04.016Z,94.40
2018-07-06T08:27:00.735Z,94.20
2018-07-06T08:29:29.363Z,94.20
2018-07-06T08:31:57.596Z,91.80
2018-07-06T08:34:37.331Z,91.80
2018-07-06T08:38:09.181Z,91.80
2018-07-06T08:40:37.418Z,91.80
2018-07-06T08:43:06.423Z,91.90
2018-07-06T08:45:35.985Z,91.30
2018-07-06T08:48:04.223Z,90.00
2018-07-06T08:50:32.520Z,90.20
2018-07-06T08:53:00.785Z,87.60
2018-07-06T08:55:29.518Z,87.80
2018-07-06T08:57:59.063Z,85.90
2018-07-06T09:00:27.338Z,87.50
2018-07-06T09:02:55.683Z,86.50
2018-07-06T09:05:24.157Z,86.80
2018-07-06T09:07:52.442Z,85.10
2018-07-06T09:10:21.007Z,84.20
2018-07-06T09:12:49.224Z,85.20
2018-07-06T09:15:17.440Z,86.20
2018-07-06T09:17:45.647Z,84.20
2018-07-06T09:20:13.977Z,84.60
2018-07-06T09:22:42.218Z,84.70
2018-07-06T09:25:10.471Z,83.40
2018-07-06T09:27:39.293Z,84.20
2018-07-06T09:30:07.635Z,84.70
2018-07-06T09:32:35.846Z,84.90
2018-07-06T09:35:04.043Z,84.70
2018-07-06T09:37:32.355Z,83.80
2018-07-06T09:40:00.618Z,82.70
2018-07-06T09:42:28.839Z,85.00
2018-07-06T09:44:57.071Z,83.70
2018-07-06T09:47:25.345Z,85.40
2018-07-06T09:49:53.598Z,86.30
2018-07-06T09:52:21.775Z,86.90
2018-07-06T09:54:50.017Z,84.60
2018-07-06T09:57:18.326Z,83.80
2018-07-06T09:59:46.529Z,84.60
2018-07-06T10:02:15.215Z,82.70
2018-07-06T10:04:43.481Z,81.80
2018-07-06T10:07:12.244Z,82.70
2018-07-06T10:09:40.989Z,84.50
2018-07-06T10:12:09.162Z,85.60
2018-07-06T10:14:37.435Z,86.60
2018-07-06T10:17:05.663Z,86.00
2018-07-06T10:19:34.831Z,86.20
2018-07-06T10:22:03.022Z,85.60
2018-07-06T10:24:31.326Z,86.30
2018-07-06T10:26:59.586Z,84.00
2018-07-06T10:30:40.167Z,81.70
2018-07-06T10:33:09.109Z,81.50
2018-07-06T10:35:37.341Z,81.90
2018-07-06T10:38:05.602Z,83.40
2018-07-06T10:40:34.727Z,82.90
2018-07-06T10:43:02.997Z,83.80
2018-07-06T10:45:31.215Z,84.30
2018-07-06T10:47:59.436Z,81.90
2018-07-06T10:50:27.687Z,81.60
2018-07-06T10:52:55.911Z,80.90
2018-07-06T10:55:24.235Z,83.00
2018-07-06T10:57:52.763Z,85.20
2018-07-06T11:00:21.017Z,84.40
2018-07-06T11:02:49.674Z,83.90
2018-07-06T11:05:17.951Z,82.60
2018-07-06T11:07:46.642Z,83.60
2018-07-06T11:10:14.835Z,80.30
2018-07-06T11:12:43.108Z,79.50
2018-07-06T11:15:11.331Z,78.60
2018-07-06T11:17:39.607Z,78.00
2018-07-06T11:20:08.205Z,78.30
2018-07-06T11:22:36.445Z,77.90
2018-07-06T11:25:04.838Z,77.90
2018-07-06T11:27:33.042Z,76.40
2018-07-06T11:30:01.624Z,77.60
2018-07-06T11:32:29.907Z,79.20
2018-07-06T11:34:58.132Z,81.40
2018-07-06T11:37:26.579Z,81.90
2018-07-06T11:39:54.935Z,79.40
2018-07-06T11:42:23.155Z,79.60
2018-07-06T11:44:51.401Z,84.00
2018-07-06T11:47:19.658Z,86.00
2018-07-06T11:49:47.931Z,86.50
2018-07-06T11:52:16.188Z,85.60
2018-07-06T11:54:44.523Z,84.70
2018-07-06T11:57:12.738Z,81.60
2018-07-06T11:59:41.099Z,82.70
2018-07-06T12:02:09.741Z,83.60
2018-07-06T12:04:38.162Z,83.60
2018-07-06T12:07:06.359Z,82.30
2018-07-06T12:09:34.622Z,81.90
2018-07-06T12:12:02.835Z,82.10
2018-07-06T12:14:31.101Z,83.70
2018-07-06T12:16:59.387Z,83.10
2018-07-06T12:19:27.998Z,83.80
2018-07-06T12:21:56.360Z,83.10
2018-07-06T12:24:24.632Z,82.70
2018-07-06T12:26:53.075Z,85.10
2018-07-06T12:29:21.423Z,84.60
2018-07-06T12:31:49.662Z,85.10
2018-07-06T12:34:19.406Z,82.40
2018-07-06T12:36:48.672Z,82.50
2018-07-06T12:39:16.882Z,82.30
2018-07-06T12:41:45.152Z,83.40
2018-07-06T12:44:13.469Z,82.80
2018-07-06T12:46:41.735Z,82.40
2018-07-06T12:49:10.491Z,83.10
2018-07-06T12:51:39.560Z,84.00
2018-07-06T12:54:07.832Z,84.80
2018-07-06T12:56:36.170Z,83.30
2018-07-06T12:59:04.887Z,83.50
2018-07-06T13:01:33.107Z,82.80
2018-07-06T13:04:01.340Z,81.00
2018-07-06T13:06:30.063Z,80.30
2018-07-06T13:08:58.303Z,79.70
2018-07-06T13:11:26.631Z,78.50
2018-07-06T13:13:55.096Z,78.10
2018-07-06T13:16:23.318Z,77.80
2018-07-06T13:18:51.598Z,76.90
2018-07-06T13:21:22.070Z,76.90
2018-07-06T13:23:50.452Z,77.30
2018-07-06T13:26:18.690Z,78.10
2018-07-06T13:28:46.968Z,78.30
2018-07-06T13:31:15.252Z,77.10
2018-07-06T13:33:43.468Z,77.40
2018-07-06T13:36:11.677Z,76.10
2018-07-06T13:38:39.935Z,75.60
2018-07-06T13:41:08.191Z,75.20
2018-07-06T13:43:36.728Z,76.10
2018-07-06T13:46:04.983Z,75.40
2018-07-06T13:48:33.245Z,74.60
2018-07-06T13:51:01.515Z,74.70
2018-07-06T13:53:29.833Z,75.60
2018-07-06T13:55:58.209Z,75.50
2018-07-06T13:58:26.453Z,74.50
2018-07-06T14:00:54.764Z,74.10
2018-07-06T14:03:23.007Z,74.60
2018-07-06T14:05:51.390Z,72.20
2018-07-06T14:08:19.612Z,71.90
2018-07-06T14:10:47.827Z,70.40
2018-07-06T14:13:16.092Z,70.40
2018-07-06T14:15:44.320Z,70.00
2018-07-06T14:18:12.714Z,70.10
2018-07-06T14:20:40.952Z,69.80
2018-07-06T14:23:09.213Z,68.90
2018-07-06T14:25:37.552Z,68.30
2018-07-06T14:28:05.825Z,67.90
2018-07-06T14:30:34.043Z,67.70
2018-07-06T14:33:02.223Z,66.40
2018-07-06T14:35:30.490Z,66.00
2018-07-06T14:37:58.783Z,65.00
2018-07-06T14:40:27.025Z,66.50
2018-07-06T14:42:55.492Z,69.40
2018-07-06T14:45:23.962Z,70.40
2018-07-06T14:47:52.176Z,69.20
2018-07-06T14:50:20.796Z,68.30
2018-07-06T14:52:49.099Z,67.30
2018-07-06T14:55:17.396Z,65.40
2018-07-06T14:57:45.651Z,65.70
2018-07-06T15:00:13.867Z,68.00
2018-07-06T15:02:42.139Z,67.20
2018-07-06T15:05:10.373Z,67.50
2018-07-06T15:07:38.787Z,68.50
2018-07-06T15:10:07.039Z,69.10
2018-07-06T15:12:35.462Z,71.20
2018-07-06T15:15:03.732Z,71.00
2018-07-06T15:17:31.982Z,71.20
2018-07-06T15:20:00.227Z,71.10
2018-07-06T15:22:29.111Z,71.10
2018-07-06T15:24:57.489Z,72.80
2018-07-06T15:27:25.654Z,72.80
2018-07-06T15:29:53.865Z,70.70
2018-07-06T15:32:22.083Z,69.60
2018-07-06T15:34:50.272Z,67.80
2018-07-06T15:37:18.560Z,66.10
2018-07-06T15:39:46.836Z,65.60
2018-07-06T15:42:17.220Z,65.80
2018-07-06T15:44:45.503Z,67.10
2018-07-06T15:47:14.872Z,68.90
2018-07-06T15:49:43.141Z,67.60
2018-07-06T15:52:11.484Z,68.70
2018-07-06T15:54:39.720Z,69.80
2018-07-06T15:57:07.980Z,72.90
2018-07-06T15:59:37.019Z,72.70
2018-07-06T16:02:05.289Z,73.50
2018-07-06T16:04:33.794Z,71.90
2018-07-06T16:07:02.048Z,69.30
2018-07-06T16:09:30.319Z,67.30
2018-07-06T16:11:58.552Z,67.00
2018-07-06T16:14:26.789Z,68.00
2018-07-06T16:16:55.035Z,68.90
2018-07-06T16:19:23.305Z,69.70
2018-07-06T16:21:51.583Z,69.50
2018-07-06T16:24:19.828Z,69.80
2018-07-06T16:26:48.165Z,69.10
2018-07-06T16:29:16.448Z,69.30
2018-07-06T16:31:44.715Z,71.10
2018-07-06T16:34:12.939Z,70.80
2018-07-06T16:36:41.207Z,70.50
2018-07-06T16:39:09.436Z,70.20
2018-07-06T16:41:38.802Z,70.20
2018-07-06T16:44:07.124Z,69.60
2018-07-06T16:46:35.271Z,70.80
2018-07-06T16:49:03.582Z,72.00
2018-07-06T16:51:31.832Z,74.10
2018-07-06T16:54:00.079Z,74.30
2018-07-06T16:56:28.375Z,76.60
2018-07-06T16:58:56.623Z,75.90
2018-07-06T17:01:24.888Z,77.30
2018-07-06T17:03:53.111Z,77.40
2018-07-06T17:06:21.381Z,78.50
2018-07-06T17:08:49.590Z,78.90
2018-07-06T17:11:17.835Z,79.30
2018-07-06T17:13:46.092Z,79.30
2018-07-06T17:16:14.335Z,79.80
2018-07-06T17:18:42.552Z,80.10
2018-07-06T17:21:10.842Z,79.90
2018-07-06T17:23:39.083Z,79.70
2018-07-06T17:28:35.319Z,78.90
2018-07-06T17:31:03.620Z,78.80
2018-07-06T17:33:31.893Z,78.20
2018-07-06T17:36:00.181Z,77.60
2018-07-06T17:38:29.264Z,78.50
2018-07-06T17:40:57.491Z,79.60
2018-07-06T17:43:26.684Z,79.10
2018-07-06T17:48:29.611Z,80.30
2018-07-06T17:50:58.135Z,80.30
2018-07-06T17:53:26.835Z,81.50
2018-07-06T17:55:55.103Z,81.00
2018-07-06T17:58:24.007Z,81.50
2018-07-06T18:00:52.315Z,80.90
2018-07-06T18:03:20.555Z,80.60
2018-07-06T18:05:48.866Z,80.40
2018-07-06T18:08:17.140Z,81.10
2018-07-06T18:10:45.391Z,81.60
2018-07-06T18:13:13.622Z,82.20
2018-07-06T18:15:42.110Z,82.70
2018-07-06T18:18:10.476Z,83.30
2018-07-06T18:20:38.749Z,83.50
2018-07-06T18:23:07.042Z,83.70
2018-07-06T18:25:35.178Z,83.80
2018-07-06T18:28:03.438Z,84.10
2018-07-06T18:30:31.779Z,85.10
2018-07-06T18:33:00.080Z,84.70
2018-07-06T18:35:28.295Z,84.70
2018-07-06T18:37:56.543Z,85.30
2018-07-06T18:40:24.818Z,85.70
2018-07-06T18:42:53.928Z,86.30
2018-07-06T18:45:22.775Z,86.40
2018-07-06T18:47:51.030Z,86.90
2018-07-06T18:50:19.260Z,87.20
2018-07-06T18:52:47.498Z,88.20
2018-07-06T18:55:15.831Z,88.00
2018-07-06T18:57:45.139Z,89.20
2018-07-06T19:00:13.372Z,89.00
2018-07-06T19:02:43.528Z,88.80
2018-07-06T19:05:11.840Z,89.10
2018-07-06T19:07:40.079Z,89.90
2018-07-06T19:10:10.248Z,90.30
2018-07-06T19:12:38.562Z,90.40
2018-07-06T19:15:06.835Z,90.70
2018-07-06T19:17:35.043Z,91.00
2018-07-06T19:20:03.334Z,91.10
2018-07-06T19:22:31.570Z,91.50
2018-07-06T19:24:59.827Z,92.00
2018-07-06T19:27:28.637Z,91.90
2018-07-06T19:29:56.851Z,92.00
2018-07-06T19:32:25.127Z,92.30
2018-07-06T19:34:53.769Z,92.50
2018-07-06T19:37:21.987Z,92.80
2018-07-06T19:42:18.111Z,93.20
2018-07-06T19:44:47.739Z,93.30
2018-07-06T19:47:16.120Z,93.40
2018-07-06T19:49:44.331Z,93.30
2018-07-06T19:52:12.901Z,93.50
2018-07-06T19:54:41.176Z,93.70
2018-07-06T19:57:09.449Z,93.70
2018-07-06T19:59:37.659Z,94.20
2018-07-06T20:02:05.897Z,94.00
2018-07-06T20:04:34.154Z,94.30
2018-07-06T20:07:02.403Z,94.30
2018-07-06T20:09:30.679Z,94.50
2018-07-06T20:12:00.328Z,94.60
2018-07-06T20:14:28.616Z,94.80
2018-07-06T20:16:56.843Z,94.90
2018-07-06T20:19:25.316Z,95.00
2018-07-06T20:21:53.435Z,95.50
2018-07-06T20:24:21.691Z,95.70
2018-07-06T20:26:49.900Z,95.90
2018-07-06T20:29:18.135Z,96.20
2018-07-06T20:31:46.451Z,96.50
2018-07-06T20:34:14.687Z,96.60
2018-07-06T20:36:43.036Z,96.80
2018-07-06T20:39:11.198Z,96.80
2018-07-06T20:41:40.260Z,97.00
2018-07-06T20:44:08.534Z,97.10
2018-07-06T20:46:36.834Z,97.40
2018-07-06T20:49:05.365Z,97.60
2018-07-06T20:51:33.648Z,97.80
2018-07-06T20:54:01.919Z,98.10
2018-07-06T20:56:30.144Z,98.30
2018-07-06T20:58:58.411Z,98.50
2018-07-06T21:01:26.643Z,98.90
2018-07-06T21:03:54.936Z,99.30
2018-07-06T21:06:23.567Z,99.50
2018-07-06T21:08:52.193Z,99.70
2018-07-06T21:11:20.515Z,99.90
2018-07-06T21:13:49.043Z,99.90
2018-07-06T21:16:17.300Z,99.90
2018-07-06T21:18:45.895Z,99.90
2018-07-06T21:21:14.145Z,99.90
2018-07-06T21:23:42.331Z,99.90
2018-07-06T21:26:10.574Z,99.90
2018-07-06T21:28:38.849Z,99.90
2018-07-06T21:31:07.503Z,99.90
2018-07-06T21:33:35.772Z,99.90
2018-07-06T21:36:04.048Z,99.90
2018-07-06T21:38:32.298Z,99.90
2018-07-06T21:41:00.830Z,99.90
2018-07-06T21:43:29.046Z,99.90
2018-07-06T21:45:57.303Z,99.90
2018-07-06T21:48:25.534Z,99.90
2018-07-06T21:50:53.784Z,99.90
2018-07-06T21:53:22.020Z,99.90
2018-07-06T21:55:50.271Z,99.90
2018-07-06T21:58:18.479Z,99.90
2018-07-06T22:00:46.668Z,99.90
2018-07-06T22:03:15.215Z,99.90
2018-07-06T22:05:43.776Z,99.90
2018-07-06T22:08:12.096Z,99.90
2018-07-06T22:10:40.376Z,99.90
2018-07-06T22:13:09.048Z,99.90
2018-07-06T22:15:42.668Z,99.90
2018-07-06T22:18:13.299Z,99.90
2018-07-06T22:20:42.183Z,99.90
2018-07-06T22:23:10.494Z,99.90
2018-07-06T22:25:38.789Z,99.90
2018-07-06T22:28:07.938Z,99.90
2018-07-06T22:30:36.183Z,99.90
2018-07-06T22:35:32.845Z,99.90
2018-07-06T22:38:01.124Z,99.90
2018-07-06T22:40:29.411Z,99.90
2018-07-06T22:42:57.682Z,99.90
2018-07-06T22:45:25.953Z,99.90
2018-07-06T22:47:54.251Z,99.90
2018-07-06T22:50:22.544Z,99.90
2018-07-06T22:52:50.755Z,99.90
2018-07-06T22:55:19.028Z,99.90
2018-07-06T22:57:47.311Z,99.90
2018-07-06T23:00:15.560Z,99.90
2018-07-06T23:02:43.887Z,99.90
2018-07-06T23:05:18.360Z,99.90
2018-07-06T23:07:46.599Z,99.90
2018-07-06T23:10:14.940Z,99.90
2018-07-06T23:12:43.166Z,99.90
2018-07-06T23:15:11.483Z,99.90
2018-07-06T23:17:39.694Z,99.90
2018-07-06T23:20:07.923Z,99.90
2018-07-06T23:23:09.349Z,99.90
2018-07-06T23:25:38.872Z,99.90
2018-07-06T23:28:07.480Z,99.90
2018-07-06T23:30:35.743Z,99.90
2018-07-06T23:33:04.871Z,99.90
2018-07-06T23:35:33.331Z,99.90
2018-07-06T23:38:01.588Z,99.90
2018-07-06T23:40:29.884Z,99.90
2018-07-06T23:42:58.693Z,99.90
2018-07-06T23:45:26.950Z,99.90
2018-07-06T23:47:55.145Z,99.90
2018-07-06T23:50:23.638Z,99.90
2018-07-06T23:52:51.866Z,99.90
2018-07-06T23:55:20.317Z,99.90
2018-07-06T23:57:48.856Z,99.90
